Fort Payne, AL

5:59 AM CST on January 23, 2017 (GMT -0600)
Fort Payne

Weather History for K4A9 - November, 2012

Change the Weather History Date:

Thursday, November 1, 2012

  Actual Average (KRMG) Record (KRMG)
Temperature  
Mean Temperature 44 °F -  
Max Temperature 62 °F 68 °F 86 °F (2016)
Min Temperature 26 °F 43 °F 28 °F (2012)
Degree Days  
Heating Degree Days 21    
Moisture  
Dew Point 23 °F    
Average Humidity 57    
Maximum Humidity 93    
Minimum Humidity 11    
Precipitation  
Precipitation 0.00 in - - ()
Sea Level Pressure  
Sea Level Pressure 29.98 in    
Wind  
Wind Speed 2 mph (WNW)    
Max Wind Speed 12 mph    
Max Gust Speed 18 mph    
Visibility 10 miles    
Events      
Averages and records for this station are not official NWS values.
T = Trace of Precipitation, MM = Missing Value Source: NWS Daily Summary

Daily Weather History Graph

Daily Weather History Graph

Search for Another Location

Airport or City:

Trip Planner

Search our weather history database for the weather conditions in past years. The results will help you decide how hot, cold, wet, or windy it might be!

Date:

Astronomy

Nov. 01, 2012 Rise Set
Actual Time 7:03 AM CDT 5:48 PM CDT
Civil Twilight 6:37 AM CDT 6:14 PM CDT
Nautical Twilight 6:07 AM CDT 6:44 PM CDT
Astronomical Twilight 5:38 AM CDT 7:14 PM CDT
Moon 7:50 PM CDT (11/1) 9:30 AM CDT (11/1)
Length of Visible Light 11h 37m
Length of Day
10h 45m
Waning Gibbous, 93% of the Moon is Illuminated
Nov 1
Waning Gibbous
Nov 6
Last Quarter
Nov 13
New
Nov 20
First Quarter
Nov 28
Full

Hourly Weather History & Observations

Time (CDT) Temp. Dew Point Humidity Pressure Visibility Wind Dir Wind Speed Gust Speed Precip Events Conditions
12:15 AM 32.0 °F 28.4 °F 87% 29.95 in 10.0 mi Calm Calm - N/A   Clear
12:35 AM 32.0 °F 28.4 °F 87% 29.95 in 10.0 mi Calm Calm - N/A   Clear
1:15 AM 32.0 °F 28.4 °F 87% 29.95 in 10.0 mi Calm Calm - N/A   Clear
1:35 AM 32.0 °F 28.4 °F 87% 29.95 in 10.0 mi Calm Calm - N/A   Clear
1:55 AM 30.2 °F 28.4 °F 93% 29.95 in 10.0 mi Calm Calm - N/A   Clear
2:15 AM 32.0 °F 28.4 °F 87% 29.95 in 10.0 mi Calm Calm - N/A   Clear
2:35 AM 30.2 °F 28.4 °F 93% 29.95 in 10.0 mi Calm Calm - N/A   Clear
2:55 AM 30.2 °F 28.4 °F 93% 29.95 in 10.0 mi Calm Calm - N/A   Clear
3:15 AM 30.2 °F 26.6 °F 86% 29.95 in 10.0 mi Calm Calm - N/A   Clear
3:35 AM 30.2 °F 26.6 °F 86% 29.95 in 10.0 mi Calm Calm - N/A   Clear
4:15 AM 28.4 °F 26.6 °F 93% 29.96 in 10.0 mi Calm Calm - N/A   Clear
4:35 AM 28.4 °F 26.6 °F 93% 29.96 in 10.0 mi Calm Calm - N/A   Clear
4:55 AM 28.4 °F 26.6 °F 93% 29.96 in 10.0 mi Calm Calm - N/A   Clear
5:15 AM 28.4 °F 26.6 °F 93% 29.97 in 10.0 mi Calm Calm - N/A   Clear
5:35 AM 28.4 °F 26.6 °F 93% 29.97 in 10.0 mi Calm Calm - N/A   Clear
5:55 AM 28.4 °F 26.6 °F 93% 29.97 in 10.0 mi Calm Calm - N/A   Clear
6:15 AM 28.4 °F 26.6 °F 93% 29.98 in 10.0 mi Calm Calm - N/A   Clear
6:35 AM 28.4 °F 24.8 °F 86% 29.98 in 10.0 mi Calm Calm - N/A   Clear
6:55 AM 28.4 °F 24.8 °F 86% 29.99 in 10.0 mi Calm Calm - N/A   Clear
7:15 AM 26.6 °F 24.8 °F 93% 30.00 in 10.0 mi Calm Calm - N/A   Clear
7:35 AM 28.4 °F 24.8 °F 86% 30.01 in 10.0 mi Calm Calm - N/A   Clear
7:55 AM 28.4 °F 26.6 °F 93% 30.01 in 10.0 mi Calm Calm - N/A   Clear
8:15 AM 30.2 °F 28.4 °F 93% 30.02 in 10.0 mi Calm Calm - N/A   Clear
8:35 AM 32.0 °F 28.4 °F 87% 30.03 in 10.0 mi Calm Calm - N/A   Clear
8:55 AM 35.6 °F 30.2 °F 81% 30.03 in 10.0 mi Calm Calm - N/A   Clear
9:15 AM 39.2 °F 32.0 °F 75% 30.03 in 10.0 mi Calm Calm - N/A   Clear
9:35 AM 41.0 °F 32.0 °F 70% 30.04 in 10.0 mi Calm Calm - N/A   Clear
9:55 AM 46.4 °F 26.6 °F 46% 30.03 in 10.0 mi Calm Calm - N/A   Clear
10:15 AM 50.0 °F 24.8 °F 37% 30.03 in 10.0 mi Calm Calm - N/A   Clear
10:35 AM 53.6 °F 19.4 °F 26% 30.02 in 10.0 mi NW 9.2 mph - N/A   Clear
10:55 AM 53.6 °F 14.0 °F 21% 30.02 in 10.0 mi NW 5.8 mph - N/A   Clear
11:15 AM 55.4 °F 10.4 °F 17% 30.03 in 10.0 mi NNW 6.9 mph 16.1 mph N/A   Clear
11:35 AM 55.4 °F 12.2 °F 18% 30.02 in 10.0 mi WNW 8.1 mph - N/A   Clear
11:55 AM 55.4 °F 10.4 °F 17% 30.02 in 10.0 mi NW 11.5 mph - N/A   Clear
12:15 PM 57.2 °F 14.0 °F 18% 30.00 in 10.0 mi NNW 9.2 mph - N/A   Clear
12:35 PM 59.0 °F 14.0 °F 17% 29.99 in 10.0 mi NW 9.2 mph - N/A   Clear
12:55 PM 59.0 °F 12.2 °F 16% 29.98 in 10.0 mi WNW 9.2 mph 16.1 mph N/A   Clear
1:15 PM 59.0 °F 10.4 °F 15% 29.98 in 10.0 mi NW 8.1 mph - N/A   Clear
1:35 PM 60.8 °F 14.0 °F 16% 29.97 in 10.0 mi West 5.8 mph - N/A   Clear
1:55 PM 60.8 °F 10.4 °F 14% 29.96 in 10.0 mi West 6.9 mph 10.4 mph N/A   Clear
2:15 PM 62.6 °F 6.8 °F 11% 29.96 in 10.0 mi NW 9.2 mph 17.3 mph N/A   Clear
2:35 PM 62.6 °F 10.4 °F 13% 29.95 in 10.0 mi WNW 8.1 mph - N/A   Clear
3:15 PM 62.6 °F 10.4 °F 13% 29.96 in 10.0 mi WNW 8.1 mph - N/A   Clear
3:35 PM 62.6 °F 10.4 °F 13% 29.96 in 10.0 mi West 11.5 mph 18.4 mph N/A   Clear
3:55 PM 62.6 °F 10.4 °F 13% 29.95 in 10.0 mi West 9.2 mph - N/A   Clear
4:15 PM 60.8 °F 8.6 °F 13% 29.95 in 10.0 mi West 9.2 mph - N/A   Clear
4:35 PM 60.8 °F 10.4 °F 14% 29.95 in 10.0 mi West 9.2 mph - N/A   Clear
4:55 PM 60.8 °F 12.2 °F 15% 29.96 in 10.0 mi West 5.8 mph - N/A   Clear
5:15 PM 59.0 °F 14.0 °F 17% 29.96 in 10.0 mi West 6.9 mph - N/A   Clear
5:35 PM 57.2 °F 17.6 °F 21% 29.97 in 10.0 mi WSW 3.5 mph - N/A   Clear
5:55 PM 53.6 °F 19.4 °F 26% 29.97 in 10.0 mi WSW 3.5 mph - N/A   Clear
6:15 PM 51.8 °F 23.0 °F 33% 29.98 in 10.0 mi Calm Calm - N/A   Clear
6:35 PM 46.4 °F 24.8 °F 43% 29.98 in 10.0 mi Calm Calm - N/A   Clear
6:55 PM 46.4 °F 26.6 °F 46% 29.98 in 10.0 mi Calm Calm - N/A   Clear
7:15 PM 44.6 °F 28.4 °F 53% 29.98 in 10.0 mi Calm Calm - N/A   Clear
7:35 PM 44.6 °F 28.4 °F 53% 29.98 in 10.0 mi Calm Calm - N/A   Clear
7:55 PM 42.8 °F 30.2 °F 61% 29.98 in 10.0 mi Calm Calm - N/A   Clear
8:15 PM 41.0 °F 28.4 °F 61% 29.98 in 10.0 mi Calm Calm - N/A   Clear
8:55 PM 39.2 °F 30.2 °F 70% 29.98 in 10.0 mi Calm Calm - N/A   Clear
9:15 PM 39.2 °F 30.2 °F 70% 29.99 in 10.0 mi Calm Calm - N/A   Clear
9:35 PM 37.4 °F 30.2 °F 75% 30.00 in 10.0 mi Calm Calm - N/A   Scattered Clouds
9:55 PM 37.4 °F 30.2 °F 75% 30.00 in 10.0 mi Calm Calm - N/A   Mostly Cloudy
10:15 PM 37.4 °F 30.2 °F 75% 30.00 in 10.0 mi Calm Calm - N/A   Overcast
10:35 PM 39.2 °F 32.0 °F 75% 30.00 in 10.0 mi Calm Calm - N/A   Overcast
10:55 PM 39.2 °F 30.2 °F 70% 30.00 in 10.0 mi Calm Calm - N/A   Overcast
11:15 PM 39.2 °F 32.0 °F 75% 30.00 in 10.0 mi Calm Calm - N/A   Overcast
11:35 PM 41.0 °F 32.0 °F 70% 30.00 in 10.0 mi Calm Calm - N/A   Overcast
11:55 PM 41.0 °F 32.0 °F 70% 29.99 in 10.0 mi Calm Calm - N/A   Overcast